Time;durP1;ratioP1;P1;durP2;ratioP2;P2;SDS_P1;SDS_P2;PMS_P1;PMS_P2;Temp;Humidity;BMP_temperature;BMP_pressure;BME280_temperature;BME280_humidity;BME280_pressure;Samples;Min_cycle;Max_cycle;Signal;HPM_P1;HPM_P2
2021/03/22 00:00:21;;;;;;;23.63;7.53;;;;;;;;;;1026635;28;20527;-79
2021/03/22 00:01:00;;;;;;;26.02;7.88;;;;;;;;;;1032121;28;20133;-79
2021/03/22 00:01:32;;;;;;;23.35;6.97;;;;;;;;;;1031083;28;20054;-78
2021/03/22 00:02:05;;;;;;;24.63;7.63;;;;;;;;;;1034358;28;20046;-79
2021/03/22 00:02:37;;;;;;;28.60;8.05;;;;;;;;;;1029563;28;20381;-79
2021/03/22 00:03:09;;;;;;;32.67;8.68;;;;;;;;;;1028897;28;20059;-79
2021/03/22 00:03:40;;;;;;;25.02;7.63;;;;;;;;;;1028083;28;20054;-79
2021/03/22 00:04:11;;;;;;;29.95;8.35;;;;;;;;;;1027805;28;20042;-79
2021/03/22 00:04:43;;;;;;;24.70;7.15;;;;;;;;;;1028121;28;20108;-79
2021/03/22 00:05:14;;;;;;;24.30;7.70;;;;;;;;;;1028328;28;20055;-79
2021/03/22 00:05:45;;;;;;;14.55;6.75;;;;;;;;;;1028469;28;20054;-79
2021/03/22 00:06:16;;;;;;;30.70;8.30;;;;;;;;;;1028662;28;20043;-79
2021/03/22 00:06:47;;;;;;;22.85;8.25;;;;;;;;;;1031442;28;20089;-79
2021/03/22 00:07:18;;;;;;;27.20;7.90;;;;;;;;;;1032341;28;20104;-79
2021/03/22 00:07:51;;;;;;;25.92;7.78;;;;;;;;;;1032186;28;20054;-79
2021/03/22 00:08:23;;;;;;;25.90;7.85;;;;;;;;;;1032936;28;20046;-79
2021/03/22 00:08:55;;;;;;;27.75;7.90;;;;;;;;;;1036092;28;20053;-79
2021/03/22 00:09:26;;;;;;;26.08;8.32;;;;;;;;;;1033010;28;20050;-79
2021/03/22 00:09:57;;;;;;;30.75;8.38;;;;;;;;;;1028905;28;20042;-79
2021/03/22 00:10:31;;;;;;;31.80;9.30;;;;;;;;;;1028549;28;20082;-79
2021/03/22 00:11:03;;;;;;;33.92;8.60;;;;;;;;;;1028700;28;20439;-79
2021/03/22 00:11:33;;;;;;;24.25;6.53;;;;;;;;;;1031318;28;20066;-79
2021/03/22 00:12:05;;;;;;;29.08;7.68;;;;;;;;;;1036750;28;20049;-79
2021/03/22 00:12:36;;;;;;;28.95;7.03;;;;;;;;;;1036465;28;20042;-79
2021/03/22 00:13:09;;;;;;;29.80;7.50;;;;;;;;;;1036523;28;20458;-79
2021/03/22 00:13:40;;;;;;;22.42;7.40;;;;;;;;;;1036203;28;20053;-79
2021/03/22 00:14:11;;;;;;;29.85;8.23;;;;;;;;;;1035295;28;20056;-79
2021/03/22 00:14:42;;;;;;;26.27;7.75;;;;;;;;;;1031871;28;20061;-79
2021/03/22 00:15:15;;;;;;;21.33;7.50;;;;;;;;;;1032385;28;20073;-79
2021/03/22 00:15:47;;;;;;;23.58;7.13;;;;;;;;;;1032981;28;20545;-79
2021/03/22 00:16:18;;;;;;;30.95;7.38;;;;;;;;;;1035982;28;20056;-79
2021/03/22 00:16:49;;;;;;;28.48;8.18;;;;;;;;;;1032887;28;20092;-79
2021/03/22 00:17:20;;;;;;;27.10;8.63;;;;;;;;;;1032470;28;20411;-79
2021/03/22 00:17:51;;;;;;;20.15;7.05;;;;;;;;;;1036114;28;20046;-79
2021/03/22 00:18:26;;;;;;;33.92;8.18;;;;;;;;;;1031935;28;20050;-79
2021/03/22 00:18:57;;;;;;;30.23;8.55;;;;;;;;;;1032010;28;20160;-79
2021/03/22 00:19:31;;;;;;;32.47;8.50;;;;;;;;;;1028014;28;20064;-79
2021/03/22 00:20:04;;;;;;;28.60;9.43;;;;;;;;;;1025127;28;20055;-79
2021/03/22 00:20:35;;;;;;;28.10;7.78;;;;;;;;;;1026519;28;20051;-79
2021/03/22 00:21:09;;;;;;;28.08;7.53;;;;;;;;;;1034389;28;20050;-79
2021/03/22 00:21:40;;;;;;;36.00;8.93;;;;;;;;;;1036028;28;20056;-79
2021/03/22 00:22:11;;;;;;;32.38;8.77;;;;;;;;;;1036201;28;20088;-78
2021/03/22 00:22:42;;;;;;;28.75;8.15;;;;;;;;;;1026871;28;20097;-79
2021/03/22 00:23:14;;;;;;;36.95;8.20;;;;;;;;;;1032301;28;20050;-79
2021/03/22 00:23:45;;;;;;;27.40;7.85;;;;;;;;;;1031951;28;20062;-79
2021/03/22 00:24:16;;;;;;;23.73;7.90;;;;;;;;;;1032642;28;20046;-79
2021/03/22 00:24:48;;;;;;;22.85;7.22;;;;;;;;;;1031989;28;20125;-79
2021/03/22 00:25:19;;;;;;;34.75;8.00;;;;;;;;;;1028979;28;20053;-78
2021/03/22 00:25:50;;;;;;;33.60;7.57;;;;;;;;;;1031929;28;20059;-79
2021/03/22 00:26:21;;;;;;;21.75;8.20;;;;;;;;;;1032975;28;20065;-79
2021/03/22 00:26:52;;;;;;;24.52;7.28;;;;;;;;;;1036374;28;20105;-79
2021/03/22 00:27:23;;;;;;;26.00;7.75;;;;;;;;;;1031455;28;20430;-79
2021/03/22 00:27:54;;;;;;;19.77;7.85;;;;;;;;;;1028361;28;20117;-79
2021/03/22 00:28:26;;;;;;;25.02;7.05;;;;;;;;;;1028585;28;20443;-79
2021/03/22 00:28:57;;;;;;;34.00;8.73;;;;;;;;;;1028691;28;20046;-79
2021/03/22 00:29:28;;;;;;;27.30;7.95;;;;;;;;;;1028527;28;20408;-79
2021/03/22 00:29:59;;;;;;;26.27;8.02;;;;;;;;;;1027939;28;20057;-80
2021/03/22 00:30:34;;;;;;;29.00;7.95;;;;;;;;;;1023987;29;20047;-79
2021/03/22 00:31:09;;;;;;;27.15;7.50;;;;;;;;;;1027898;28;20658;-79
2021/03/22 00:31:40;;;;;;;25.42;8.57;;;;;;;;;;1029322;28;20058;-79
2021/03/22 00:32:11;;;;;;;27.02;8.15;;;;;;;;;;1026845;28;20200;-79
2021/03/22 00:32:43;;;;;;;24.15;7.38;;;;;;;;;;1023993;28;20086;-79
2021/03/22 00:33:17;;;;;;;25.42;8.75;;;;;;;;;;1024408;28;20094;-79
2021/03/22 00:33:48;;;;;;;27.65;8.90;;;;;;;;;;1025517;28;20058;-79
2021/03/22 00:34:19;;;;;;;28.95;8.60;;;;;;;;;;1026088;28;20051;-79
2021/03/22 00:34:51;;;;;;;30.10;8.52;;;;;;;;;;1031961;28;20046;-79
2021/03/22 00:35:22;;;;;;;25.77;8.52;;;;;;;;;;1024503;28;20051;-79
2021/03/22 00:35:53;;;;;;;34.83;9.00;;;;;;;;;;1024181;28;20049;-79
2021/03/22 00:36:24;;;;;;;28.10;8.45;;;;;;;;;;1028405;28;20054;-79
2021/03/22 00:36:55;;;;;;;34.42;9.07;;;;;;;;;;1028671;28;20050;-79
2021/03/22 00:37:27;;;;;;;27.17;8.15;;;;;;;;;;1024251;28;20438;-79
2021/03/22 00:37:58;;;;;;;22.13;7.47;;;;;;;;;;1024217;28;20476;-79
2021/03/22 00:38:29;;;;;;;26.35;9.32;;;;;;;;;;1020777;28;20079;-79
2021/03/22 00:39:00;;;;;;;26.23;9.07;;;;;;;;;;1020287;29;20047;-79
2021/03/22 00:39:31;;;;;;;30.15;9.05;;;;;;;;;;1023847;29;20538;-79
2021/03/22 00:40:03;;;;;;;31.05;8.65;;;;;;;;;;1027782;28;20054;-79
2021/03/22 00:40:37;;;;;;;41.70;9.68;;;;;;;;;;1029171;28;20403;-79
2021/03/22 00:41:10;;;;;;;22.15;7.50;;;;;;;;;;1029714;28;20053;-79
2021/03/22 00:41:41;;;;;;;29.63;8.98;;;;;;;;;;1035817;28;20418;-79
2021/03/22 00:42:12;;;;;;;30.65;9.30;;;;;;;;;;1034451;28;20411;-80
2021/03/22 00:42:43;;;;;;;28.33;8.88;;;;;;;;;;1028553;28;20047;-79
2021/03/22 00:43:16;;;;;;;27.15;8.85;;;;;;;;;;1027770;28;20042;-79
2021/03/22 00:43:56;;;;;;;25.13;8.02;;;;;;;;;;1027287;28;20440;-79
2021/03/22 00:44:27;;;;;;;26.63;7.97;;;;;;;;;;1029703;28;20110;-79
2021/03/22 00:44:58;;;;;;;29.45;8.77;;;;;;;;;;1027866;28;20053;-79
2021/03/22 00:45:29;;;;;;;25.52;7.63;;;;;;;;;;1027721;28;20051;-79
2021/03/22 00:46:01;;;;;;;24.15;8.48;;;;;;;;;;1023870;29;20055;-79
2021/03/22 00:46:33;;;;;;;22.75;7.30;;;;;;;;;;1027642;28;20459;-79
2021/03/22 00:47:08;;;;;;;23.20;7.55;;;;;;;;;;1033552;28;20046;-79
2021/03/22 00:47:39;;;;;;;31.60;8.75;;;;;;;;;;1030799;28;20090;-79
2021/03/22 00:48:11;;;;;;;19.05;8.55;;;;;;;;;;1027810;28;20066;-79
2021/03/22 00:48:42;;;;;;;35.97;9.90;;;;;;;;;;1027564;28;20155;-79
2021/03/22 00:49:13;;;;;;;22.85;8.15;;;;;;;;;;1031936;28;20061;-79
2021/03/22 00:49:44;;;;;;;28.55;9.68;;;;;;;;;;1028341;28;20113;-79
2021/03/22 00:50:37;;;;;;;27.92;8.88;;;;;;;;;;1028060;28;20083;-78
2021/03/22 00:51:08;;;;;;;30.17;8.80;;;;;;;;;;1031156;28;20133;-79
2021/03/22 00:51:39;;;;;;;28.45;7.53;;;;;;;;;;1027892;28;20043;-79
2021/03/22 00:52:11;;;;;;;32.20;9.25;;;;;;;;;;1028344;28;20431;-78
2021/03/22 00:52:42;;;;;;;34.03;8.65;;;;;;;;;;1028197;28;20475;-79
2021/03/22 00:53:14;;;;;;;29.05;8.02;;;;;;;;;;1032350;28;20046;-78
2021/03/22 00:53:45;;;;;;;26.77;8.77;;;;;;;;;;1031866;28;20503;-79
2021/03/22 00:54:16;;;;;;;33.78;9.45;;;;;;;;;;1028370;28;20511;-79
2021/03/22 00:54:47;;;;;;;29.17;9.85;;;;;;;;;;1024191;29;20060;-78
2021/03/22 00:55:18;;;;;;;28.23;9.73;;;;;;;;;;1019926;29;20173;-79
2021/03/22 00:55:49;;;;;;;26.42;8.90;;;;;;;;;;1020266;29;20058;-79
2021/03/22 00:56:20;;;;;;;20.77;7.28;;;;;;;;;;1020595;28;20047;-79
2021/03/22 00:56:51;;;;;;;26.73;8.57;;;;;;;;;;1022964;28;20098;-79
2021/03/22 00:57:22;;;;;;;31.02;8.68;;;;;;;;;;1023614;28;20051;-79
2021/03/22 00:57:53;;;;;;;30.85;9.93;;;;;;;;;;1024031;28;20050;-79
2021/03/22 00:58:24;;;;;;;29.67;7.60;;;;;;;;;;1028363;28;20538;-78
2021/03/22 00:58:55;;;;;;;32.63;9.55;;;;;;;;;;1032417;28;20073;-79
2021/03/22 00:59:26;;;;;;;37.53;10.25;;;;;;;;;;1031793;28;20053;-78
2021/03/22 00:59:57;;;;;;;28.67;9.20;;;;;;;;;;1028702;28;20047;-78
2021/03/22 01:00:35;;;;;;;23.95;9.38;;;;;;;;;;1027815;28;20050;-79
2021/03/22 01:01:06;;;;;;;29.75;9.73;;;;;;;;;;1031750;28;20058;-79
2021/03/22 01:01:37;;;;;;;41.95;9.85;;;;;;;;;;1028962;28;20055;-79
2021/03/22 01:02:09;;;;;;;34.75;9.60;;;;;;;;;;1033223;28;20190;-78
2021/03/22 01:02:40;;;;;;;35.40;9.30;;;;;;;;;;1032214;28;20054;-78
2021/03/22 01:03:20;;;;;;;29.92;9.18;;;;;;;;;;1027823;28;20047;-79
2021/03/22 01:03:54;;;;;;;28.65;8.73;;;;;;;;;;1028102;28;20062;-79
2021/03/22 01:04:25;;;;;;;29.92;7.40;;;;;;;;;;1027724;28;20513;-79
2021/03/22 01:04:56;;;;;;;30.85;9.98;;;;;;;;;;1031537;28;20527;-78
2021/03/22 01:05:27;;;;;;;29.70;9.43;;;;;;;;;;1032623;28;20050;-78
2021/03/22 01:05:59;;;;;;;34.53;10.80;;;;;;;;;;1028730;28;20046;-79
2021/03/22 01:06:30;;;;;;;36.92;11.07;;;;;;;;;;1032206;28;20050;-79
2021/03/22 01:07:02;;;;;;;32.95;10.75;;;;;;;;;;1031804;28;20133;-79
2021/03/22 01:07:33;;;;;;;25.20;9.25;;;;;;;;;;1027873;28;20046;-79
2021/03/22 01:08:04;;;;;;;34.95;9.63;;;;;;;;;;1024616;28;20051;-79
2021/03/22 01:08:37;;;;;;;27.65;8.65;;;;;;;;;;1028606;28;20070;-79
2021/03/22 01:09:08;;;;;;;23.52;8.93;;;;;;;;;;1032567;28;20050;-79
2021/03/22 01:09:39;;;;;;;21.15;8.15;;;;;;;;;;1028516;28;20138;-79
2021/03/22 01:10:42;;;;;;;22.08;8.95;;;;;;;;;;1027739;28;20153;-78
2021/03/22 01:11:17;;;;;;;23.05;7.93;;;;;;;;;;1028600;28;20050;-78
2021/03/22 01:11:48;;;;;;;28.95;8.18;;;;;;;;;;1036791;28;20050;-79
2021/03/22 01:12:19;;;;;;;25.80;7.80;;;;;;;;;;1031952;28;20062;-79
2021/03/22 01:12:50;;;;;;;25.05;8.18;;;;;;;;;;1029570;28;20102;-78
2021/03/22 01:13:42;;;;;;;39.42;10.23;;;;;;;;;;1024961;28;20055;-79
2021/03/22 01:14:22;;;;;;;26.67;8.63;;;;;;;;;;1027886;28;20061;-79
2021/03/22 01:14:53;;;;;;;30.17;8.98;;;;;;;;;;1026255;28;20059;-79
2021/03/22 01:15:24;;;;;;;35.60;9.27;;;;;;;;;;1023816;29;20056;-78
2021/03/22 01:15:56;;;;;;;28.25;9.32;;;;;;;;;;1023902;28;20047;-78
2021/03/22 01:16:34;;;;;;;21.83;9.07;;;;;;;;;;1021692;29;20436;-79
2021/03/22 01:17:06;;;;;;;22.00;7.97;;;;;;;;;;1023749;29;20054;-79
2021/03/22 01:17:37;;;;;;;28.95;9.60;;;;;;;;;;1019710;29;20520;-78
2021/03/22 01:18:09;;;;;;;37.58;10.57;;;;;;;;;;1022716;29;20178;-79
2021/03/22 01:18:45;;;;;;;25.38;9.00;;;;;;;;;;1019817;29;20055;-78
2021/03/22 01:19:25;;;;;;;35.15;9.80;;;;;;;;;;1025074;28;20054;-79
2021/03/22 01:19:56;;;;;;;32.13;8.68;;;;;;;;;;1023558;28;20047;-79
2021/03/22 01:20:35;;;;;;;25.58;9.05;;;;;;;;;;1021902;29;20413;-79
2021/03/22 01:21:08;;;;;;;27.98;10.00;;;;;;;;;;1027849;28;20054;-79
2021/03/22 01:21:42;;;;;;;30.92;9.45;;;;;;;;;;1029315;28;20419;-79
2021/03/22 01:22:13;;;;;;;32.35;9.25;;;;;;;;;;1029926;28;20043;-79
2021/03/22 01:22:44;;;;;;;26.48;9.40;;;;;;;;;;1029820;28;20046;-79
2021/03/22 01:23:16;;;;;;;22.20;8.48;;;;;;;;;;1031902;28;20137;-79
2021/03/22 01:23:47;;;;;;;25.42;8.10;;;;;;;;;;1024092;28;20512;-79
2021/03/22 01:24:20;;;;;;;34.60;9.18;;;;;;;;;;1024276;28;20142;-79
2021/03/22 01:24:51;;;;;;;28.40;9.07;;;;;;;;;;1019732;29;20425;-79
2021/03/22 01:25:22;;;;;;;31.17;10.00;;;;;;;;;;1021095;28;20386;-78
2021/03/22 01:25:58;;;;;;;29.08;9.10;;;;;;;;;;1026372;28;20051;-79
2021/03/22 01:26:32;;;;;;;26.77;8.18;;;;;;;;;;1033878;28;20081;-79
2021/03/22 01:27:06;;;;;;;27.30;9.57;;;;;;;;;;1035869;28;20050;-79
2021/03/22 01:27:38;;;;;;;29.33;11.20;;;;;;;;;;1029194;28;20058;-79
2021/03/22 01:28:11;;;;;;;27.38;10.18;;;;;;;;;;1027584;28;20050;-79
2021/03/22 01:28:41;;;;;;;32.05;9.70;;;;;;;;;;1029054;28;20500;-79
2021/03/22 01:29:16;;;;;;;27.48;9.68;;;;;;;;;;1029085;28;20558;-79
2021/03/22 01:29:47;;;;;;;35.90;10.48;;;;;;;;;;1031752;28;20054;-79
2021/03/22 01:30:25;;;;;;;24.17;9.13;;;;;;;;;;1027748;28;20054;-79
2021/03/22 01:30:58;;;;;;;28.77;10.57;;;;;;;;;;1027356;28;20063;-79
2021/03/22 01:31:30;;;;;;;31.73;9.70;;;;;;;;;;1025499;28;20047;-79
2021/03/22 01:32:05;;;;;;;23.00;8.45;;;;;;;;;;1025579;28;20055;-79
2021/03/22 01:32:36;;;;;;;37.20;10.48;;;;;;;;;;1025018;28;20090;-79
2021/03/22 01:33:09;;;;;;;32.67;10.10;;;;;;;;;;1023710;29;20122;-79
2021/03/22 01:33:42;;;;;;;30.95;9.38;;;;;;;;;;1025035;28;20090;-79
2021/03/22 01:34:13;;;;;;;28.10;9.00;;;;;;;;;;1029246;28;20490;-79
2021/03/22 01:34:45;;;;;;;26.95;9.10;;;;;;;;;;1032757;28;20053;-79
2021/03/22 01:35:16;;;;;;;27.73;8.60;;;;;;;;;;1026929;28;20385;-79
2021/03/22 01:35:47;;;;;;;26.08;9.88;;;;;;;;;;1019787;29;20059;-79
2021/03/22 01:36:21;;;;;;;30.27;9.32;;;;;;;;;;1020417;29;20377;-79
2021/03/22 01:36:53;;;;;;;27.65;9.65;;;;;;;;;;1021502;28;20055;-79
2021/03/22 01:37:24;;;;;;;29.90;10.20;;;;;;;;;;1030749;28;20047;-79
2021/03/22 01:37:55;;;;;;;25.02;9.45;;;;;;;;;;1032767;28;20058;-79
2021/03/22 01:38:27;;;;;;;41.35;9.85;;;;;;;;;;1032118;28;20042;-79
2021/03/22 01:39:04;;;;;;;38.25;11.25;;;;;;;;;;1032689;28;20061;-79
2021/03/22 01:39:36;;;;;;;28.35;9.07;;;;;;;;;;1031755;28;20050;-79
2021/03/22 01:40:17;;;;;;;35.10;10.65;;;;;;;;;;1033248;28;20050;-79
2021/03/22 01:41:00;;;;;;;;;;;;;;;;;;1034669;28;20046;-79
2021/03/22 01:41:42;;;;;;;30.05;8.38;;;;;;;;;;1036057;28;20377;-79
2021/03/22 01:42:32;;;;;;;24.85;8.80;;;;;;;;;;1040009;28;20076;-79
2021/03/22 01:43:09;;;;;;;28.27;9.05;;;;;;;;;;1044182;28;20053;-79
2021/03/22 01:44:02;;;;;;;30.88;9.65;;;;;;;;;;1039734;28;20881;-79
2021/03/22 01:44:56;;;;;;;25.52;7.75;;;;;;;;;;1035921;28;20197;-80
2021/03/22 01:45:27;;;;;;;24.40;7.55;;;;;;;;;;1032625;28;20046;-79
2021/03/22 01:45:58;;;;;;;26.85;8.75;;;;;;;;;;1023819;29;20055;-79
2021/03/22 01:46:31;;;;;;;30.75;9.48;;;;;;;;;;1027000;28;20430;-78
2021/03/22 01:47:07;;;;;;;24.50;8.98;;;;;;;;;;1018527;28;20091;-79
2021/03/22 01:47:38;;;;;;;40.60;11.40;;;;;;;;;;1030286;28;20061;-79
2021/03/22 01:48:10;;;;;;;28.33;9.40;;;;;;;;;;1027760;28;20047;-79
2021/03/22 01:48:41;;;;;;;29.08;8.15;;;;;;;;;;1025992;28;20090;-78
2021/03/22 01:49:13;;;;;;;29.70;9.15;;;;;;;;;;1023635;29;20051;-79
2021/03/22 01:49:48;;;;;;;33.28;9.02;;;;;;;;;;1020551;29;20539;-79
2021/03/22 01:50:25;;;;;;;35.00;12.15;;;;;;;;;;1023487;29;20055;-79
2021/03/22 01:50:56;;;;;;;34.45;9.52;;;;;;;;;;1025520;28;20059;-79
2021/03/22 01:51:28;;;;;;;27.90;8.98;;;;;;;;;;1025845;28;20093;-79
2021/03/22 01:51:59;;;;;;;32.65;9.27;;;;;;;;;;1023501;28;20044;-79
2021/03/22 01:52:30;;;;;;;36.92;10.63;;;;;;;;;;1028124;28;20046;-79
2021/03/22 01:53:02;;;;;;;26.17;10.32;;;;;;;;;;1028676;28;20057;-79
2021/03/22 01:53:34;;;;;;;27.60;9.00;;;;;;;;;;1027946;28;20484;-79
2021/03/22 01:54:06;;;;;;;39.22;10.07;;;;;;;;;;1027808;28;20416;-79
2021/03/22 01:54:38;;;;;;;36.97;11.25;;;;;;;;;;1027700;28;20534;-79
2021/03/22 01:55:12;;;;;;;32.53;11.13;;;;;;;;;;1024311;29;20459;-79
2021/03/22 01:55:43;;;;;;;30.77;11.02;;;;;;;;;;1028691;28;20051;-79
2021/03/22 01:56:29;;;;;;;19.95;7.60;;;;;;;;;;1033414;28;20053;-78
2021/03/22 01:57:23;;;;;;;27.67;10.60;;;;;;;;;;1030483;28;20065;-79
2021/03/22 01:57:55;;;;;;;28.77;9.43;;;;;;;;;;1031682;28;20591;-79
2021/03/22 01:58:25;;;;;;;26.25;9.23;;;;;;;;;;1027585;28;20410;-79
2021/03/22 01:58:56;;;;;;;30.75;10.15;;;;;;;;;;1031234;28;20058;-79
2021/03/22 01:59:30;;;;;;;28.65;11.23;;;;;;;;;;1027813;28;20503;-78
2021/03/22 02:00:28;;;;;;;37.03;11.23;;;;;;;;;;1023788;28;20106;-79
2021/03/22 02:00:59;;;;;;;25.67;8.95;;;;;;;;;;1031781;28;20046;-79
2021/03/22 02:01:30;;;;;;;29.00;9.27;;;;;;;;;;1031664;28;20541;-79
2021/03/22 02:02:03;;;;;;;41.03;10.65;;;;;;;;;;1035696;28;20050;-79
2021/03/22 02:02:35;;;;;;;22.38;8.98;;;;;;;;;;1028460;28;20401;-79
2021/03/22 02:03:13;;;;;;;36.63;11.30;;;;;;;;;;1028341;28;20142;-79
2021/03/22 02:03:44;;;;;;;37.20;11.63;;;;;;;;;;1027614;28;20047;-79
2021/03/22 02:04:17;;;;;;;35.92;10.57;;;;;;;;;;1031697;28;20135;-79
2021/03/22 02:04:48;;;;;;;38.50;10.23;;;;;;;;;;1027742;28;20051;-79
2021/03/22 02:05:22;;;;;;;29.77;12.00;;;;;;;;;;1028198;28;20054;-79
2021/03/22 02:05:53;;;;;;;40.47;10.95;;;;;;;;;;1028579;28;20472;-79
2021/03/22 02:06:24;;;;;;;28.55;11.52;;;;;;;;;;1025091;28;20401;-79
2021/03/22 02:06:55;;;;;;;28.73;9.90;;;;;;;;;;1028521;28;20561;-79
2021/03/22 02:07:27;;;;;;;36.65;11.40;;;;;;;;;;1027631;28;20102;-79
2021/03/22 02:08:16;;;;;;;33.85;11.95;;;;;;;;;;1027654;28;20411;-80
2021/03/22 02:08:48;;;;;;;31.45;10.60;;;;;;;;;;1028158;28;20423;-79
2021/03/22 02:09:19;;;;;;;36.15;11.68;;;;;;;;;;1028517;28;20062;-79
2021/03/22 02:09:50;;;;;;;33.38;10.52;;;;;;;;;;1028463;28;20051;-79
2021/03/22 02:10:21;;;;;;;33.40;11.32;;;;;;;;;;1032974;28;20066;-79
2021/03/22 02:10:53;;;;;;;25.80;9.57;;;;;;;;;;1024880;28;20389;-79
2021/03/22 02:11:26;;;;;;;32.65;10.25;;;;;;;;;;1029130;28;20550;-79
2021/03/22 02:11:57;;;;;;;37.47;11.77;;;;;;;;;;1033183;28;20057;-79
2021/03/22 02:12:29;;;;;;;26.08;10.57;;;;;;;;;;1033873;28;20046;-78
2021/03/22 02:13:01;;;;;;;28.10;11.10;;;;;;;;;;1032376;28;20196;-79
2021/03/22 02:13:34;;;;;;;31.52;11.20;;;;;;;;;;1032385;28;20057;-79
2021/03/22 02:14:08;;;;;;;46.92;13.77;;;;;;;;;;1033128;28;20054;-79
2021/03/22 02:14:39;;;;;;;32.58;11.23;;;;;;;;;;1029402;28;20054;-78
2021/03/22 02:15:10;;;;;;;28.00;11.48;;;;;;;;;;1028572;28;20058;-79
2021/03/22 02:15:43;;;;;;;33.03;12.15;;;;;;;;;;1028362;28;20102;-79
2021/03/22 02:16:21;;;;;;;30.88;10.98;;;;;;;;;;1028370;28;20059;-79
2021/03/22 02:17:22;;;;;;;36.05;10.82;;;;;;;;;;1030073;28;20109;-79
2021/03/22 02:18:04;;;;;;;;;;;;;;;;;;1033901;28;20491;-79
2021/03/22 02:18:53;;;;;;;19.75;8.30;;;;;;;;;;1034168;28;19921;-79
2021/03/22 02:20:04;;;;;;;27.00;9.52;;;;;;;;;;1032527;28;20057;-79
2021/03/22 02:20:51;;;;;;;28.27;10.65;;;;;;;;;;1039205;28;20060;-79
2021/03/22 02:21:25;;;;;;;30.23;9.65;;;;;;;;;;1035369;28;20046;-79
2021/03/22 02:22:30;;;;;;;30.42;10.05;;;;;;;;;;1032307;28;20121;-79
2021/03/22 02:23:17;;;;;;;30.08;9.77;;;;;;;;;;1035522;28;20046;-79
2021/03/22 02:24:09;;;;;;;23.58;10.85;;;;;;;;;;1036524;28;20438;-79
2021/03/22 02:25:00;;;;;;;25.00;10.30;;;;;;;;;;1033406;28;20069;-79
2021/03/22 02:25:38;;;;;;;26.73;9.57;;;;;;;;;;1034130;28;20050;-78
2021/03/22 02:26:37;;;;;;;25.83;9.02;;;;;;;;;;1032333;28;20576;-79
2021/03/22 02:27:45;;;;;;;26.10;7.97;;;;;;;;;;1033012;28;20090;-79
2021/03/22 02:28:50;;;;;;;40.85;9.13;;;;;;;;;;1036503;28;20072;-79
2021/03/22 02:29:28;;;;;;;35.78;11.25;;;;;;;;;;1040259;28;20050;-79
2021/03/22 02:30:18;;;;;;;33.50;10.38;;;;;;;;;;1038078;28;20050;-79
2021/03/22 02:31:07;;;;;;;30.98;11.25;;;;;;;;;;1036488;28;20058;-79
2021/03/22 02:31:56;;;;;;;35.10;11.75;;;;;;;;;;1033635;28;20054;-79
2021/03/22 02:32:53;;;;;;;35.75;10.40;;;;;;;;;;1034016;28;20506;-79
2021/03/22 02:33:40;;;;;;;32.88;10.35;;;;;;;;;;1036387;28;20050;-79
2021/03/22 02:34:24;;;;;;;29.35;10.90;;;;;;;;;;1038967;28;20053;-79
2021/03/22 02:35:19;;;;;;;37.33;10.88;;;;;;;;;;1040426;28;20072;-79
2021/03/22 02:36:07;;;;;;;26.75;10.77;;;;;;;;;;1036366;28;20061;-79
2021/03/22 02:37:02;;;;;;;24.10;9.52;;;;;;;;;;1038019;28;20054;-79
2021/03/22 02:37:51;;;;;;;33.72;10.77;;;;;;;;;;1036226;28;20050;-79
2021/03/22 02:38:24;;;;;;;34.65;10.80;;;;;;;;;;1034131;28;20046;-79
2021/03/22 02:39:00;;;;;;;34.47;13.25;;;;;;;;;;1033596;28;20054;-79
2021/03/22 02:39:38;;;;;;;43.83;11.45;;;;;;;;;;1032257;28;20050;-78
2021/03/22 02:40:23;;;;;;;47.85;14.23;;;;;;;;;;1034658;28;20058;-79
2021/03/22 02:40:58;;;;;;;35.33;11.82;;;;;;;;;;1036703;28;20505;-78
2021/03/22 02:41:41;;;;;;;28.20;11.88;;;;;;;;;;1035614;28;20099;-79
2021/03/22 02:42:13;;;;;;;37.03;11.43;;;;;;;;;;1032097;28;20050;-79
2021/03/22 02:42:45;;;;;;;38.28;12.18;;;;;;;;;;1027148;28;20047;-79
2021/03/22 02:43:17;;;;;;;35.42;10.80;;;;;;;;;;1026441;28;20047;-79
2021/03/22 02:44:00;;;;;;;30.20;11.40;;;;;;;;;;1029506;28;20065;-79
2021/03/22 02:44:34;;;;;;;31.25;12.38;;;;;;;;;;1036795;28;20050;-79
2021/03/22 02:45:31;;;;;;;38.50;13.02;;;;;;;;;;1037005;28;20387;-79
2021/03/22 02:46:06;;;;;;;28.73;11.57;;;;;;;;;;1037060;28;20049;-78
2021/03/22 02:46:38;;;;;;;32.83;12.32;;;;;;;;;;1032913;28;20064;-79
2021/03/22 02:47:20;;;;;;;31.40;11.63;;;;;;;;;;1032286;28;20054;-79
2021/03/22 02:47:51;;;;;;;35.92;13.77;;;;;;;;;;1034662;28;20081;-79
2021/03/22 02:48:28;;;;;;;39.90;13.15;;;;;;;;;;1032344;28;20434;-79
2021/03/22 02:49:02;;;;;;;29.55;13.70;;;;;;;;;;1031491;28;20050;-79
2021/03/22 02:49:36;;;;;;;45.20;13.23;;;;;;;;;;1028387;28;20058;-79
2021/03/22 02:50:14;;;;;;;47.38;13.55;;;;;;;;;;1028121;28;20057;-79
2021/03/22 02:50:46;;;;;;;38.80;11.38;;;;;;;;;;1030373;28;20406;-78
2021/03/22 02:51:23;;;;;;;32.15;9.55;;;;;;;;;;1026033;28;20517;-78
2021/03/22 02:52:37;;;;;;;50.78;13.27;;;;;;;;;;1031818;28;20062;-78
2021/03/22 02:53:46;;;;;;;29.63;9.70;;;;;;;;;;1034849;28;20046;-79
2021/03/22 02:54:32;;;;;;;37.60;11.63;;;;;;;;;;1036256;28;20368;-79
2021/03/22 02:55:21;;;;;;;29.05;10.23;;;;;;;;;;1031850;28;20042;-79
2021/03/22 02:55:59;;;;;;;29.98;12.32;;;;;;;;;;1028231;28;20061;-79
2021/03/22 02:56:44;;;;;;;30.85;10.55;;;;;;;;;;1024561;29;20058;-78
2021/03/22 02:57:22;;;;;;;30.83;12.55;;;;;;;;;;1028250;28;20057;-79
2021/03/22 02:57:57;;;;;;;35.85;11.63;;;;;;;;;;1032401;28;20502;-79
2021/03/22 02:58:38;;;;;;;45.05;12.43;;;;;;;;;;1035744;28;20050;-78
2021/03/22 02:59:38;;;;;;;43.67;12.25;;;;;;;;;;1031832;28;20057;-79
2021/03/22 03:00:16;;;;;;;38.75;12.52;;;;;;;;;;1021350;29;20059;-79
2021/03/22 03:01:30;;;;;;;43.92;12.48;;;;;;;;;;1032025;28;20065;-79
2021/03/22 03:02:04;;;;;;;41.55;14.10;;;;;;;;;;1028283;28;20062;-78
2021/03/22 03:02:38;;;;;;;35.00;12.90;;;;;;;;;;1030391;28;20419;-79
2021/03/22 03:03:12;;;;;;;44.83;14.80;;;;;;;;;;1028181;28;20205;-79
2021/03/22 03:03:45;;;;;;;45.22;14.30;;;;;;;;;;1027525;28;20054;-79
2021/03/22 03:04:17;;;;;;;45.15;15.25;;;;;;;;;;1025618;28;20087;-79
2021/03/22 03:04:48;;;;;;;45.33;13.13;;;;;;;;;;1021316;29;20056;-79
2021/03/22 03:05:22;;;;;;;38.13;13.57;;;;;;;;;;1020281;29;20055;-79
2021/03/22 03:05:54;;;;;;;35.70;12.93;;;;;;;;;;1024295;29;20428;-79
2021/03/22 03:06:57;;;;;;;37.15;13.77;;;;;;;;;;1026103;28;20055;-79
2021/03/22 03:07:28;;;;;;;42.67;12.30;;;;;;;;;;1032301;28;20133;-79
2021/03/22 03:08:05;;;;;;;29.80;11.40;;;;;;;;;;1029075;28;20080;-79
2021/03/22 03:08:39;;;;;;;37.75;11.80;;;;;;;;;;1028262;28;20062;-78
2021/03/22 03:09:10;;;;;;;42.90;13.93;;;;;;;;;;1027368;28;20058;-78
2021/03/22 03:09:41;;;;;;;47.80;14.27;;;;;;;;;;1029945;28;20061;-79
2021/03/22 03:10:15;;;;;;;49.22;14.93;;;;;;;;;;1025857;28;20058;-79
2021/03/22 03:10:46;;;;;;;45.58;14.57;;;;;;;;;;1028908;28;20412;-79
2021/03/22 03:11:17;;;;;;;40.58;14.38;;;;;;;;;;1032853;28;20437;-79
2021/03/22 03:11:48;;;;;;;30.75;13.55;;;;;;;;;;1033029;28;20057;-79
2021/03/22 03:12:19;;;;;;;42.25;14.57;;;;;;;;;;1028701;28;20046;-79
2021/03/22 03:12:51;;;;;;;42.33;14.35;;;;;;;;;;1032242;28;20438;-79
2021/03/22 03:13:22;;;;;;;45.47;14.30;;;;;;;;;;1029041;28;20046;-78
2021/03/22 03:13:53;;;;;;;45.58;14.02;;;;;;;;;;1032633;28;20510;-79
2021/03/22 03:14:24;;;;;;;45.33;13.30;;;;;;;;;;1032968;28;20058;-78
2021/03/22 03:14:56;;;;;;;40.90;14.93;;;;;;;;;;1032731;28;20187;-79
2021/03/22 03:15:32;;;;;;;41.67;13.98;;;;;;;;;;1037515;28;20076;-79
2021/03/22 03:16:04;;;;;;;40.00;12.70;;;;;;;;;;1033477;28;20100;-78
2021/03/22 03:16:36;;;;;;;41.45;14.10;;;;;;;;;;1025050;28;20093;-79
2021/03/22 03:17:07;;;;;;;41.75;13.50;;;;;;;;;;1021704;29;20052;-79
2021/03/22 03:17:39;;;;;;;44.40;14.40;;;;;;;;;;1021432;28;20454;-79
2021/03/22 03:18:10;;;;;;;44.17;13.82;;;;;;;;;;1025343;28;20051;-79
2021/03/22 03:18:41;;;;;;;32.47;13.82;;;;;;;;;;1024193;29;20051;-79
2021/03/22 03:19:12;;;;;;;34.15;13.10;;;;;;;;;;1020458;29;20047;-79
2021/03/22 03:19:44;;;;;;;39.70;13.52;;;;;;;;;;1028341;28;20427;-79
2021/03/22 03:20:21;;;;;;;46.05;15.82;;;;;;;;;;1028339;28;20043;-79
2021/03/22 03:20:52;;;;;;;49.00;14.88;;;;;;;;;;1037369;28;20077;-79
2021/03/22 03:21:23;;;;;;;46.72;14.68;;;;;;;;;;1040221;28;20049;-79
2021/03/22 03:21:55;;;;;;;45.05;13.57;;;;;;;;;;1040334;28;20233;-79
2021/03/22 03:22:25;;;;;;;30.65;12.82;;;;;;;;;;1032479;28;20150;-79
2021/03/22 03:22:58;;;;;;;32.20;12.27;;;;;;;;;;1032425;28;20050;-79
2021/03/22 03:23:30;;;;;;;43.38;14.95;;;;;;;;;;1027984;28;20042;-78
2021/03/22 03:24:02;;;;;;;46.10;14.05;;;;;;;;;;1024807;28;20520;-79
2021/03/22 03:24:33;;;;;;;36.15;12.82;;;;;;;;;;1025099;28;20404;-79
2021/03/22 03:25:07;;;;;;;35.28;14.55;;;;;;;;;;1025735;28;20373;-79
2021/03/22 03:25:38;;;;;;;36.85;14.63;;;;;;;;;;1029837;28;20051;-79
2021/03/22 03:26:09;;;;;;;39.97;13.77;;;;;;;;;;1025450;28;20047;-79
2021/03/22 03:26:40;;;;;;;46.30;13.85;;;;;;;;;;1025341;28;20051;-78
2021/03/22 03:27:12;;;;;;;43.33;15.18;;;;;;;;;;1024269;29;20051;-79